TNCB/BON METAR and TAF weather

Enter ICAO airport designator
Station Type Date Time Source
TNCB METAR 2019/04/19 09:55 UTC NOAA

TNCB 190955Z AUTO 09017KT 9999 FEW016/// 26/23 Q1012


Station Type Date Time Source
TNCB Decoded METAR 2019/04/19 09:55 UTC NOAA

Flamingo Airport, Bonaire, Netherlands Antilles (TNCB) 12-09N 068-17W 7M
Apr 19, 2019 - 05:55 AM EDT / 2019.04.19 0955 UTC
Wind: from the E (090 degrees) at 20 MPH (17 KT):0
Visibility: greater than 7 mile(s):0
Sky conditions: mostly clear
Temperature: 78 F (26 C)
Dew Point: 73 F (23 C)
Relative Humidity: 83%
Pressure (altimeter): 29.88 in. Hg (1012 hPa)
ob: TNCB 190955Z AUTO 09017KT 9999 FEW016/// 26/23 Q1012
cycle: 10

Station Type Date Time Source
TNCB TAF 2019/04/19 06:27 UTC NOAA

TAF TAF TNCB 190433Z 1906/2012 08016KT 9999 SCT020

Example: see airport list